Time;durP1;ratioP1;P1;durP2;ratioP2;P2;SDS_P1;SDS_P2;PMS_P1;PMS_P2;Temp;Humidity;BMP_temperature;BMP_pressure;BME280_temperature;BME280_humidity;BME280_pressure;Samples;Min_cycle;Max_cycle;Signal;HPM_P1;HPM_P2
2023/01/11 00:00:46;;;;;;;2.93;2.50;;;;;;;19.12;46.45;97690.06;4989339;28;20671;-88
2023/01/11 00:03:13;;;;;;;2.60;2.33;;;;;;;18.58;46.38;97611.38;4974109;28;20298;-88
2023/01/11 00:05:42;;;;;;;2.37;2.17;;;;;;;17.67;46.40;97448.88;4971197;28;20258;-87
2023/01/11 00:08:09;;;;;;;3.30;2.40;;;;;;;19.27;46.61;97700.06;4959611;28;20317;-88
2023/01/11 00:10:36;;;;;;;2.97;2.47;;;;;;;19.53;46.43;97746.19;4972365;28;20206;-87
2023/01/11 00:13:03;;;;;;;2.40;2.20;;;;;;;19.13;46.43;97670.56;4973267;28;20725;-87
2023/01/11 00:15:29;;;;;;;3.07;2.50;;;;;;;19.30;46.35;97701.03;4963047;28;20211;-87
2023/01/11 00:17:56;;;;;;;2.40;2.20;;;;;;;19.30;46.49;97701.03;4959466;28;20203;-88
2023/01/11 00:20:23;;;;;;;2.47;2.20;;;;;;;19.44;46.53;97732.19;4975357;28;20203;-88
2023/01/11 00:22:50;;;;;;;2.90;2.30;;;;;;;19.12;46.30;97667.13;4975905;28;20678;-86
2023/01/11 00:25:16;;;;;;;3.23;2.50;;;;;;;18.93;46.49;97620.47;4991620;28;20671;-88
2023/01/11 00:27:43;;;;;;;2.43;2.20;;;;;;;19.08;46.64;97650.00;4943672;28;20670;-87
2023/01/11 00:30:10;;;;;;;3.10;2.20;;;;;;;19.09;46.48;97656.81;4983442;28;20752;-87
2023/01/11 00:32:37;;;;;;;2.70;2.10;;;;;;;18.39;46.67;97530.00;4976159;28;20273;-87
2023/01/11 00:35:04;;;;;;;1.90;1.80;;;;;;;18.43;46.54;97521.69;4962013;28;20199;-88
2023/01/11 00:37:30;;;;;;;2.50;2.07;;;;;;;19.40;46.70;97687.88;4962856;28;20301;-87
2023/01/11 00:39:59;;;;;;;2.73;2.13;;;;;;;19.45;46.61;97685.50;4996758;28;20306;-87
2023/01/11 00:47:56;;;;;;;3.17;2.10;;;;;;;19.33;46.56;97662.94;4964048;28;20226;-87
2023/01/11 00:50:28;;;;;;;2.03;1.83;;;;;;;18.96;46.60;97602.78;4982621;28;20241;-87
2023/01/11 00:52:55;;;;;;;2.47;2.10;;;;;;;19.38;46.69;97665.66;4981852;28;20225;-87
2023/01/11 00:55:21;;;;;;;2.63;2.03;;;;;;;19.78;46.67;97736.13;5000403;28;20211;-87
2023/01/11 00:57:48;;;;;;;2.10;1.90;;;;;;;19.39;46.75;97675.94;4974481;28;20227;-87
2023/01/11 01:00:15;;;;;;;2.50;2.30;;;;;;;19.32;46.60;97655.22;4974261;28;20701;-87
2023/01/11 01:02:42;;;;;;;3.00;2.53;;;;;;;19.80;46.67;97738.75;4963024;28;20211;-88
2023/01/11 01:05:09;;;;;;;2.40;2.20;;;;;;;19.52;46.56;97688.38;4978686;28;20207;-87
2023/01/11 01:07:35;;;;;;;2.20;1.87;;;;;;;19.12;46.53;97612.75;4940406;28;20337;-87
2023/01/11 01:10:03;;;;;;;2.97;2.20;;;;;;;19.16;46.91;97622.28;4966700;28;20234;-87
2023/01/11 01:15:15;;;;;;;2.10;2.00;;;;;;;18.81;46.63;97562.31;4980112;28;20211;-88
2023/01/11 01:17:41;;;;;;;2.10;1.83;;;;;;;19.12;46.88;97612.75;4995325;28;20306;-87
2023/01/11 01:20:08;;;;;;;2.03;1.83;;;;;;;19.42;46.69;97667.56;4958174;28;20721;-88
2023/01/11 01:22:35;;;;;;;2.40;2.00;;;;;;;19.11;46.60;97611.91;4959300;28;20354;-87
2023/01/11 01:25:02;;;;;;;2.07;1.93;;;;;;;19.62;46.75;97705.75;4965105;28;20277;-87
2023/01/11 01:27:28;;;;;;;2.43;2.23;;;;;;;19.25;46.70;97641.38;4974725;28;20294;-87
2023/01/11 01:29:55;;;;;;;2.20;2.00;;;;;;;18.81;46.82;97569.94;4938864;28;20226;-88
2023/01/11 01:32:21;;;;;;;2.10;1.90;;;;;;;19.83;46.87;97734.66;4973325;28;20298;-87
2023/01/11 01:34:48;;;;;;;2.33;2.10;;;;;;;19.08;46.22;97593.97;4974609;28;20294;-88
2023/01/11 01:37:14;;;;;;;2.20;2.00;;;;;;;19.36;46.63;97652.03;4958538;28;20219;-87
2023/01/11 01:39:41;;;;;;;2.37;2.10;;;;;;;19.29;46.68;97639.81;4974613;28;20229;-87
2023/01/11 01:42:15;;;;;;;2.10;1.90;;;;;;;19.28;46.78;97646.63;4973872;28;20222;-87
2023/01/11 01:45:01;;;;;;;1.90;1.80;;;;;;;19.28;46.93;97620.25;4974832;28;20261;-88
2023/01/11 01:47:39;;;;;;;2.10;1.90;;;;;;;19.85;46.87;97725.38;4974098;28;20262;-88
2023/01/11 01:50:40;;;;;;;2.63;2.00;;;;;;;19.85;46.72;97716.84;4999532;28;20652;-86
2023/01/11 01:53:09;;;;;;;2.43;1.70;;;;;;;19.46;46.80;97651.56;4964645;28;20665;-87
2023/01/11 01:55:38;;;;;;;2.10;1.90;;;;;;;19.12;46.54;97582.19;4960103;28;20217;-87
2023/01/11 01:58:06;;;;;;;2.17;1.80;;;;;;;17.95;46.52;97389.91;4947164;28;20937;-88
2023/01/11 02:00:33;;;;;;;1.97;1.87;;;;;;;19.27;47.00;97603.25;4939990;28;20203;-87
2023/01/11 02:02:59;;;;;;;2.30;2.10;;;;;;;19.40;46.97;97626.72;4957688;28;20211;-87
2023/01/11 02:05:27;;;;;;;2.17;1.97;;;;;;;18.66;46.94;97505.69;4990754;28;20215;-84
2023/01/11 02:07:55;;;;;;;2.20;2.00;;;;;;;19.43;46.75;97629.38;4992900;28;20199;-88
2023/01/11 02:10:21;;;;;;;1.83;1.73;;;;;;;19.45;46.77;97626.91;4982530;28;20202;-87
2023/01/11 02:12:59;;;;;;;1.80;1.70;;;;;;;19.42;46.97;97616.59;4943414;28;20203;-88
2023/01/11 02:15:25;;;;;;;1.77;1.67;;;;;;;19.87;46.78;97684.63;4996073;28;20576;-85
2023/01/11 02:17:52;;;;;;;1.80;1.60;;;;;;;19.72;46.86;97654.31;4974041;28;20620;-88
2023/01/11 02:20:33;;;;;;;2.23;1.70;;;;;;;19.88;46.96;97678.72;4978922;28;20623;-87
2023/01/11 02:23:30;;;;;;;2.00;1.80;;;;;;;19.87;46.68;97675.28;4994189;28;20746;-88
2023/01/11 02:26:15;;;;;;;1.60;1.50;;;;;;;19.88;46.66;97671.94;4990626;28;20199;-87
2023/01/11 02:29:03;;;;;;;1.90;1.70;;;;;;;19.50;46.89;97603.31;4991378;28;20859;-88
2023/01/11 02:31:29;;;;;;;1.80;1.70;;;;;;;19.89;46.91;97675.34;4944080;28;20656;-87
2023/01/11 02:34:33;;;;;;;1.60;1.50;;;;;;;19.88;47.02;97669.41;4991509;28;20199;-87
2023/01/11 02:37:06;;;;;;;2.00;1.80;;;;;;;19.03;46.85;97526.69;4986971;28;20228;-87
2023/01/11 02:39:56;;;;;;;1.90;1.80;;;;;;;19.88;46.72;97669.41;4973552;28;20645;-88
2023/01/11 02:45:55;;;;;;;2.00;1.90;;;;;;;19.88;46.78;97669.41;4976986;28;20621;-88
2023/01/11 02:48:48;;;;;;;1.60;1.50;;;;;;;19.88;46.89;97664.28;4989807;28;20235;-87
2023/01/11 02:51:23;;;;;;;2.20;2.00;;;;;;;19.88;46.83;97663.41;4981812;28;20245;-87
2023/01/11 02:54:00;;;;;;;1.80;1.70;;;;;;;18.71;46.69;97462.59;4974089;28;20237;-88
2023/01/11 02:56:29;;;;;;;1.90;1.80;;;;;;;18.71;46.57;97444.78;4988372;28;20227;-88
2023/01/11 02:58:56;;;;;;;2.23;1.77;;;;;;;19.89;46.65;97649.84;5006609;28;20673;-88
2023/01/11 03:01:24;;;;;;;2.33;1.60;;;;;;;19.33;46.54;97553.38;4993388;28;20576;-88
2023/01/11 03:03:53;;;;;;;1.90;1.77;;;;;;;19.54;46.63;97584.75;4962343;28;20202;-87
2023/01/11 03:06:21;;;;;;;2.00;1.80;;;;;;;19.42;46.46;97557.97;4967189;28;20207;-87
2023/01/11 03:09:13;;;;;;;2.20;1.77;;;;;;;19.89;46.48;97635.41;4960981;28;20230;-87
2023/01/11 03:14:44;;;;;;;3.20;2.00;;;;;;;19.88;46.52;97631.13;4979491;28;20249;-88
2023/01/11 03:17:26;;;;;;;2.17;1.60;;;;;;;19.88;46.36;97631.13;4980593;28;20706;-87
2023/01/11 03:19:54;;;;;;;1.80;1.70;;;;;;;19.39;46.45;97540.84;4987880;28;20230;-87
2023/01/11 03:22:24;;;;;;;1.80;1.70;;;;;;;19.87;46.51;97637.03;4994419;28;20666;-88
2023/01/11 03:25:12;;;;;;;2.67;1.90;;;;;;;19.61;46.71;97590.97;4982718;28;20207;-87
2023/01/11 03:27:54;;;;;;;2.10;1.70;;;;;;;19.86;46.62;97639.53;4963911;28;20870;-87
2023/01/11 03:31:08;;;;;;;2.23;1.93;;;;;;;19.85;46.75;97632.69;4998894;28;20211;-87
2023/01/11 03:33:36;;;;;;;1.90;1.80;;;;;;;19.84;46.74;97630.97;4921131;29;20216;-86
2023/01/11 03:36:23;;;;;;;2.10;1.90;;;;;;;19.84;46.75;97618.22;4907366;29;20292;-88
2023/01/11 03:38:52;;;;;;;1.60;1.50;;;;;;;19.07;46.67;97492.03;4967753;28;20694;-87
2023/01/11 03:41:22;;;;;;;2.03;1.90;;;;;;;19.22;46.81;97508.72;5008340;28;20210;-87
2023/01/11 03:43:49;;;;;;;1.80;1.70;;;;;;;19.22;46.80;97502.78;4993257;28;20256;-87
2023/01/11 03:46:23;;;;;;;4.70;1.70;;;;;;;19.38;46.71;97528.94;4947482;28;20207;-87
2023/01/11 03:49:03;;;;;;;1.87;1.60;;;;;;;19.82;46.98;97605.41;4963602;28;20482;-88
2023/01/11 03:51:32;;;;;;;1.60;1.50;;;;;;;19.22;46.89;97493.44;4979293;28;20211;-88
2023/01/11 03:54:02;;;;;;;1.77;1.67;;;;;;;19.83;46.92;97594.38;4967352;28;20198;-88
2023/01/11 03:56:55;;;;;;;1.80;1.70;;;;;;;18.50;46.93;97359.94;4998717;28;20656;-87
2023/01/11 03:59:22;;;;;;;1.43;1.33;;;;;;;18.91;46.85;97428.56;4977381;28;20226;-88
2023/01/11 04:01:48;;;;;;;1.77;1.40;;;;;;;19.08;46.86;97465.72;4990637;28;20709;-87
2023/01/11 04:04:15;;;;;;;2.00;1.60;;;;;;;19.50;46.80;97525.97;4945651;28;20207;-87
2023/01/11 04:06:41;;;;;;;1.67;1.50;;;;;;;19.39;46.90;97494.13;4987131;28;20203;-87
2023/01/11 04:09:08;;;;;;;1.73;1.63;;;;;;;18.68;46.47;97383.56;4965088;28;20238;-87
2023/01/11 04:11:35;;;;;;;1.57;1.47;;;;;;;18.41;46.79;97329.91;4953021;28;20729;-88
2023/01/11 04:14:01;;;;;;;1.60;1.50;;;;;;;19.12;46.86;97471.00;4965382;28;20230;-88
2023/01/11 04:16:28;;;;;;;1.50;1.40;;;;;;;18.60;46.89;97365.44;4958987;28;20210;-88
2023/01/11 04:18:55;;;;;;;1.50;1.40;;;;;;;19.09;46.91;97447.06;4981808;28;20306;-87
2023/01/11 04:21:21;;;;;;;1.60;1.50;;;;;;;19.86;46.82;97575.75;4965479;28;20203;-87
2023/01/11 04:23:48;;;;;;;2.00;1.80;;;;;;;18.53;46.76;97345.66;4972574;28;20633;-88
2023/01/11 04:26:16;;;;;;;1.87;1.77;;;;;;;19.87;46.76;97580.91;4970527;28;20219;-87
2023/01/11 04:28:43;;;;;;;1.50;1.40;;;;;;;19.87;46.70;97582.63;4956234;28;20242;-87
2023/01/11 04:31:10;;;;;;;1.77;1.60;;;;;;;19.42;46.69;97499.34;4984397;28;20709;-87
2023/01/11 04:33:36;;;;;;;1.50;1.40;;;;;;;19.59;46.67;97524.63;4944763;28;20716;-88
2023/01/11 04:36:07;;;;;;;1.93;1.73;;;;;;;19.65;46.36;97535.06;4958926;28;20232;-87
2023/01/11 04:38:34;;;;;;;1.70;1.53;;;;;;;19.88;46.50;97563.94;4963307;28;20226;-87
2023/01/11 04:43:49;;;;;;;1.40;1.30;;;;;;;18.74;46.91;97382.09;4990234;28;20666;-88
2023/01/11 04:46:15;;;;;;;1.90;1.67;;;;;;;19.47;46.41;97518.22;4974957;28;20203;-86
2023/01/11 04:48:42;;;;;;;1.50;1.40;;;;;;;19.54;46.50;97541.44;4964576;28;20234;-88
2023/01/11 04:51:08;;;;;;;1.50;1.40;;;;;;;18.69;46.60;97358.16;4958925;28;20243;-86
2023/01/11 04:53:35;;;;;;;1.80;1.70;;;;;;;18.59;46.52;97360.31;4963867;28;20237;-88
2023/01/11 04:56:02;;;;;;;2.20;1.60;;;;;;;19.24;46.39;97448.53;4982370;28;20234;-88
2023/01/11 04:58:29;;;;;;;1.60;1.50;;;;;;;19.88;46.32;97569.03;4946891;28;20234;-87
2023/01/11 05:00:56;;;;;;;1.70;1.60;;;;;;;18.58;46.35;97336.53;4978623;28;20227;-88
2023/01/11 05:03:22;;;;;;;1.63;1.53;;;;;;;19.51;46.53;97510.72;4967222;28;20206;-88
2023/01/11 05:05:59;;;;;;;1.60;1.50;;;;;;;19.28;46.59;97473.34;4950346;28;20620;-88
2023/01/11 05:08:27;;;;;;;1.80;1.70;;;;;;;18.91;46.41;97395.44;4981020;28;20313;-87
2023/01/11 05:10:58;;;;;;;1.80;1.70;;;;;;;19.90;46.43;97570.81;4968068;28;20213;-87
2023/01/11 05:13:40;;;;;;;1.87;1.70;;;;;;;19.91;46.43;97576.81;4960726;28;20207;-88
2023/01/11 05:16:17;;;;;;;1.70;1.60;;;;;;;19.49;46.21;97496.19;4971630;28;20207;-87
2023/01/11 05:18:50;;;;;;;2.20;1.60;;;;;;;19.93;46.65;97573.50;4962042;28;20226;-89
2023/01/11 05:21:20;;;;;;;1.53;1.43;;;;;;;19.63;46.56;97515.44;4976700;28;20207;-87
2023/01/11 05:23:46;;;;;;;1.60;1.50;;;;;;;19.73;46.98;97533.66;4963864;28;20264;-88
2023/01/11 05:26:22;;;;;;;1.50;1.40;;;;;;;19.39;46.79;97472.06;4962035;28;20266;-88
2023/01/11 05:28:49;;;;;;;1.50;1.40;;;;;;;19.46;46.74;97483.34;4970552;28;20253;-88
2023/01/11 05:31:15;;;;;;;1.60;1.50;;;;;;;19.51;46.65;97485.25;4962720;28;20208;-88
2023/01/11 05:33:42;;;;;;;1.93;1.60;;;;;;;18.90;46.64;97374.25;4988067;28;20264;-86
2023/01/11 05:36:14;;;;;;;1.60;1.50;;;;;;;18.87;46.28;97381.75;4979553;28;20211;-87
2023/01/11 05:38:41;;;;;;;1.50;1.40;;;;;;;19.65;46.27;97504.47;4949882;28;20288;-87
2023/01/11 05:41:08;;;;;;;1.70;1.60;;;;;;;19.30;46.18;97447.94;4979688;28;20292;-87
2023/01/11 05:46:21;;;;;;;1.60;1.50;;;;;;;19.65;46.16;97501.91;4988621;28;20638;-86
2023/01/11 05:48:47;;;;;;;1.70;1.60;;;;;;;18.90;46.27;97365.72;4978298;28;20278;-86
2023/01/11 05:51:14;;;;;;;2.50;1.67;;;;;;;19.44;46.11;97462.91;4985521;28;20237;-87
2023/01/11 05:53:41;;;;;;;1.60;1.50;;;;;;;19.55;46.06;97478.59;4961554;28;20791;-87
2023/01/11 05:56:07;;;;;;;1.60;1.50;;;;;;;19.42;46.06;97461.13;4975601;28;20206;-87
2023/01/11 05:58:34;;;;;;;1.50;1.40;;;;;;;19.37;46.04;97445.66;4963280;28;20229;-87
2023/01/11 06:01:01;;;;;;;1.60;1.50;;;;;;;19.38;45.77;97443.97;4942089;28;20583;-88
2023/01/11 06:03:27;;;;;;;1.80;1.70;;;;;;;19.53;46.56;97481.06;4965111;28;20202;-89
2023/01/11 06:05:54;;;;;;;1.60;1.50;;;;;;;19.34;46.46;97450.66;4973058;28;20206;-86
2023/01/11 06:08:20;;;;;;;3.00;1.80;;;;;;;19.43;46.89;97463.72;4969113;28;20261;-85
2023/01/11 06:10:51;;;;;;;3.03;1.70;;;;;;;19.40;46.51;97445.78;4958297;28;20207;-91
2023/01/11 06:13:26;;;;;;;3.17;1.80;;;;;;;19.32;46.56;97418.25;4952138;28;20780;-90
2023/01/11 06:15:59;;;;;;;5.50;1.90;;;;;;;19.98;46.53;97538.81;4947598;28;20230;-89
2023/01/11 06:18:26;;;;;;;4.50;2.13;;;;;;;19.62;46.27;97483.09;4999624;28;20245;-90
2023/01/11 06:20:53;;;;;;;3.33;2.33;;;;;;;19.95;45.74;97560.78;4943419;28;20290;-91
2023/01/11 06:23:20;;;;;;;5.80;2.20;;;;;;;19.05;45.53;97382.44;4979678;28;20206;-92
2023/01/11 06:25:46;;;;;;;5.23;2.10;;;;;;;19.54;44.88;97471.75;4974428;28;20281;-91
2023/01/11 06:28:13;;;;;;;3.77;2.00;;;;;;;18.94;44.12;97359.91;4963847;28;20329;-92
2023/01/11 06:30:39;;;;;;;2.13;1.83;;;;;;;18.95;43.38;97354.88;4947009;28;20293;-89
2023/01/11 06:33:06;;;;;;;2.70;1.97;;;;;;;18.57;43.30;97289.00;4945242;28;20560;-89
2023/01/11 06:35:39;;;;;;;6.03;2.10;;;;;;;19.31;42.87;97417.41;4994226;28;20213;-90
2023/01/11 06:38:08;;;;;;;3.67;1.97;;;;;;;19.30;42.47;97435.19;4955702;28;20233;-90
2023/01/11 06:40:35;;;;;;;2.80;2.40;;;;;;;19.03;42.71;97368.78;4961595;28;20203;-89
2023/01/11 06:43:01;;;;;;;2.20;2.00;;;;;;;18.83;42.95;97336.59;4946638;28;20217;-91
2023/01/11 06:45:29;;;;;;;5.13;2.27;;;;;;;19.10;43.01;97387.69;4961764;28;20765;-88
2023/01/11 06:47:56;;;;;;;2.10;1.90;;;;;;;19.53;42.87;97465.78;4960345;28;20678;-90
2023/01/11 06:50:22;;;;;;;6.63;2.37;;;;;;;19.40;42.96;97429.59;4976281;28;20254;-85
2023/01/11 06:52:56;;;;;;;2.17;1.90;;;;;;;19.78;42.93;97500.69;4960105;28;20203;-89
2023/01/11 06:55:23;;;;;;;3.83;2.30;;;;;;;19.01;43.69;97359.34;4990204;28;20661;-90
2023/01/11 06:57:50;;;;;;;2.30;2.10;;;;;;;19.06;43.06;97370.56;4945235;28;20222;-88
2023/01/11 07:00:17;;;;;;;4.13;2.10;;;;;;;19.00;43.19;97372.88;4961307;28;20234;-88
2023/01/11 07:02:44;;;;;;;2.33;1.90;;;;;;;19.21;43.40;97410.19;4995213;28;20211;-88
2023/01/11 07:05:11;;;;;;;2.53;2.10;;;;;;;19.45;43.61;97443.41;4993357;28;20214;-87
2023/01/11 07:07:38;;;;;;;2.63;2.10;;;;;;;19.61;43.37;97458.41;4983692;28;20203;-87
2023/01/11 07:10:11;;;;;;;3.47;2.10;;;;;;;19.61;43.63;97461.84;4945094;28;20236;-88
2023/01/11 07:12:38;;;;;;;2.17;1.70;;;;;;;18.91;43.70;97340.31;4960999;28;20203;-88
2023/01/11 07:15:05;;;;;;;5.07;2.20;;;;;;;19.62;44.14;97452.50;4944756;28;20241;-88
2023/01/11 07:17:32;;;;;;;5.87;2.60;;;;;;;19.19;43.83;97378.69;4957192;28;20218;-87
2023/01/11 07:19:59;;;;;;;4.57;2.90;;;;;;;19.42;44.07;97438.19;4947780;28;20724;-87
2023/01/11 07:22:25;;;;;;;2.30;1.83;;;;;;;19.20;44.26;97390.63;4977143;28;20214;-87
2023/01/11 07:24:52;;;;;;;3.30;1.90;;;;;;;19.01;44.02;97364.44;4947693;28;20662;-87
2023/01/11 07:27:19;;;;;;;2.10;1.90;;;;;;;19.11;44.30;97400.50;4980454;28;20234;-87
2023/01/11 07:29:46;;;;;;;3.80;2.20;;;;;;;19.10;44.96;97386.00;4960604;28;20235;-87
2023/01/11 07:32:12;;;;;;;3.23;2.10;;;;;;;19.05;45.27;97376.47;4951050;28;20289;-88
2023/01/11 07:34:39;;;;;;;2.47;2.27;;;;;;;19.41;45.42;97449.16;4953492;28;20207;-87
2023/01/11 07:37:08;;;;;;;2.33;2.10;;;;;;;18.63;45.18;97324.84;4966258;28;20202;-88
2023/01/11 07:39:54;;;;;;;3.93;2.40;;;;;;;19.44;45.25;97447.63;4965427;28;20230;-88
2023/01/11 07:45:07;;;;;;;3.23;2.30;;;;;;;19.21;45.31;97409.31;4964784;28;20687;-88
2023/01/11 07:47:33;;;;;;;8.30;2.50;;;;;;;19.31;45.55;97431.81;4966182;28;20276;-88
2023/01/11 07:50:00;;;;;;;5.03;2.47;;;;;;;19.30;45.47;97425.84;4951341;28;20226;-88
2023/01/11 07:52:26;;;;;;;3.00;2.27;;;;;;;19.30;45.82;97425.84;4973068;28;20253;-84
2023/01/11 07:54:53;;;;;;;3.70;2.47;;;;;;;19.51;45.42;97475.03;4948728;28;20207;-87
2023/01/11 07:57:19;;;;;;;4.70;2.40;;;;;;;18.78;45.44;97329.63;4956482;28;20207;-87
2023/01/11 07:59:46;;;;;;;4.03;2.37;;;;;;;19.17;45.75;97405.81;4961674;28;20225;-88
2023/01/11 08:02:12;;;;;;;2.77;2.30;;;;;;;19.45;45.83;97449.34;4949664;28;20209;-88
2023/01/11 08:04:39;;;;;;;4.97;2.10;;;;;;;19.03;46.04;97386.59;4983397;28;20261;-87
2023/01/11 08:07:05;;;;;;;6.33;2.63;;;;;;;19.33;46.18;97435.31;4948890;28;20301;-87
2023/01/11 08:09:32;;;;;;;3.27;2.50;;;;;;;19.19;46.28;97418.59;4959344;28;20346;-87
2023/01/11 08:14:44;;;;;;;3.00;2.20;;;;;;;19.54;46.32;97472.59;4968202;28;20206;-89
2023/01/11 08:17:15;;;;;;;2.60;2.30;;;;;;;18.81;46.47;97345.00;4966358;28;20210;-89
2023/01/11 08:19:41;;;;;;;2.90;2.13;;;;;;;19.00;46.54;97370.31;4960614;28;20258;-89
2023/01/11 08:22:08;;;;;;;3.17;2.50;;;;;;;19.49;46.50;97448.66;4940939;28;20207;-90
2023/01/11 08:24:35;;;;;;;2.30;2.10;;;;;;;19.08;46.46;97363.84;4977160;28;20689;-89
2023/01/11 08:27:02;;;;;;;2.73;2.30;;;;;;;19.44;46.34;97428.88;4967470;28;20290;-89
2023/01/11 08:29:28;;;;;;;2.90;2.10;;;;;;;19.44;46.60;97429.78;4942927;28;20306;-90
2023/01/11 08:31:55;;;;;;;2.70;2.10;;;;;;;19.28;46.61;97416.44;4963258;28;20202;-89
2023/01/11 08:34:22;;;;;;;2.67;2.37;;;;;;;19.19;46.44;97391.44;4957739;28;20698;-89
2023/01/11 08:36:49;;;;;;;3.90;2.60;;;;;;;19.08;46.80;97361.28;4977357;28;20265;-89
2023/01/11 08:39:15;;;;;;;4.87;2.43;;;;;;;18.18;46.65;97199.28;4960061;28;20745;-89
2023/01/11 08:41:44;;;;;;;6.80;2.90;;;;;;;18.40;46.46;97241.69;4959026;28;20210;-89
2023/01/11 08:44:10;;;;;;;3.23;2.33;;;;;;;19.06;46.61;97351.06;4959734;28;20206;-89
2023/01/11 08:46:40;;;;;;;3.10;2.47;;;;;;;19.50;46.92;97424.91;4968549;28;20214;-89
2023/01/11 08:49:10;;;;;;;3.03;2.30;;;;;;;19.35;46.88;97403.09;4969044;28;20233;-90
2023/01/11 08:51:38;;;;;;;3.93;2.30;;;;;;;19.13;46.70;97355.53;4939490;28;20713;-90
2023/01/11 08:54:08;;;;;;;3.83;2.57;;;;;;;19.38;46.82;97411.72;4945272;28;20213;-89
2023/01/11 08:56:35;;;;;;;4.30;2.40;;;;;;;19.28;46.92;97381.63;4956189;28;20286;-89
2023/01/11 08:59:03;;;;;;;3.23;2.57;;;;;;;19.00;46.68;97335.56;4940444;28;20564;-89
2023/01/11 09:01:29;;;;;;;2.23;2.03;;;;;;;18.87;47.12;97312.13;4986858;28;20306;-90
2023/01/11 09:03:56;;;;;;;2.60;2.30;;;;;;;19.38;46.99;97395.53;4953844;28;20199;-90
2023/01/11 09:06:22;;;;;;;2.93;2.40;;;;;;;19.00;46.67;97324.50;4979923;28;20207;-89
2023/01/11 09:08:49;;;;;;;2.53;2.33;;;;;;;19.12;46.50;97351.28;4969783;28;20247;-90
2023/01/11 09:14:02;;;;;;;4.03;2.30;;;;;;;19.54;46.87;97431.81;4974837;28;20207;-90
2023/01/11 09:16:29;;;;;;;4.53;2.30;;;;;;;19.42;46.73;97412.69;4960587;28;20207;-89
2023/01/11 09:18:55;;;;;;;3.73;2.40;;;;;;;19.46;46.96;97424.72;4955921;28;20321;-89
2023/01/11 09:21:22;;;;;;;2.43;2.07;;;;;;;19.53;46.48;97452.16;4956835;28;20223;-90
2023/01/11 09:23:49;;;;;;;2.80;2.40;;;;;;;19.30;47.45;97400.38;4984965;28;20230;-90
2023/01/11 09:26:15;;;;;;;2.47;2.03;;;;;;;18.54;46.90;97249.81;4973572;28;20203;-89
2023/01/11 09:28:42;;;;;;;2.97;2.27;;;;;;;19.39;47.12;97405.78;4974052;28;20231;-89
2023/01/11 09:31:08;;;;;;;2.20;2.00;;;;;;;19.45;47.10;97426.41;4961411;28;20221;-88
2023/01/11 09:33:37;;;;;;;3.27;2.27;;;;;;;18.65;46.95;97279.94;4954921;28;20221;-89
2023/01/11 09:36:04;;;;;;;1.97;1.80;;;;;;;19.26;47.14;97392.53;4972599;28;20208;-88
2023/01/11 09:38:32;;;;;;;3.83;2.40;;;;;;;18.92;47.30;97323.38;4940500;28;20231;-88
2023/01/11 09:41:18;;;;;;;2.53;2.30;;;;;;;19.83;46.97;97488.94;4969348;28;20245;-90
2023/01/11 09:43:49;;;;;;;2.53;2.30;;;;;;;19.10;47.12;97363.06;4959014;28;20238;-89
2023/01/11 09:46:16;;;;;;;2.27;2.07;;;;;;;18.68;46.65;97290.22;4987728;28;20678;-89
2023/01/11 09:48:45;;;;;;;4.17;1.97;;;;;;;18.38;47.06;97230.56;4971245;28;20227;-90
2023/01/11 09:51:14;;;;;;;2.77;2.10;;;;;;;19.39;47.29;97408.34;4973146;28;20724;-88
2023/01/11 09:53:45;;;;;;;2.90;2.13;;;;;;;18.20;47.17;97195.13;4958847;28;20281;-88
2023/01/11 09:56:13;;;;;;;2.33;2.13;;;;;;;19.34;47.28;97397.13;4958089;28;20209;-88
2023/01/11 09:58:52;;;;;;;2.40;2.20;;;;;;;19.81;47.37;97476.13;4941135;28;20231;-89
2023/01/11 10:01:46;;;;;;;2.53;2.10;;;;;;;19.79;47.38;97466.72;4973967;28;20353;-87
2023/01/11 10:04:40;;;;;;;4.23;2.20;;;;;;;19.80;47.44;97465.88;4975022;28;20195;-88
2023/01/11 10:07:52;;;;;;;2.60;2.13;;;;;;;19.78;47.58;97450.53;4989463;28;20350;-89
2023/01/11 10:10:50;;;;;;;2.57;2.20;;;;;;;19.78;47.73;97452.22;4974204;28;20571;-89
2023/01/11 10:13:46;;;;;;;2.27;2.07;;;;;;;19.78;47.59;97447.13;4972018;28;20257;-89
2023/01/11 10:16:35;;;;;;;2.40;2.20;;;;;;;19.78;47.53;97442.03;4981910;28;20209;-88
2023/01/11 10:19:35;;;;;;;2.70;2.03;;;;;;;18.94;47.60;97298.81;4965551;28;20285;-88
2023/01/11 10:22:15;;;;;;;2.33;2.13;;;;;;;19.13;47.94;97306.31;4979044;28;20206;-90
2023/01/11 10:24:52;;;;;;;3.00;2.30;;;;;;;19.54;47.66;97388.50;4974993;28;20257;-89
2023/01/11 10:27:21;;;;;;;2.30;1.90;;;;;;;18.91;47.83;97269.00;4962170;28;20211;-88
2023/01/11 10:30:09;;;;;;;2.03;1.83;;;;;;;19.35;47.90;97347.91;4960624;28;20302;-87
2023/01/11 10:35:32;;;;;;;2.67;1.97;;;;;;;19.77;47.80;97423.31;4995514;28;20195;-88
2023/01/11 10:41:03;;;;;;;2.10;1.80;;;;;;;19.49;47.81;97371.31;4985780;28;20646;-89
2023/01/11 10:43:31;;;;;;;2.13;1.90;;;;;;;19.22;47.85;97315.09;4951269;28;20221;-89
2023/01/11 10:46:18;;;;;;;2.33;2.00;;;;;;;19.35;47.29;97350.44;4987370;28;20282;-92
2023/01/11 10:48:45;;;;;;;2.27;2.07;;;;;;;19.36;47.67;97334.34;4970708;28;20223;-91
2023/01/11 10:51:26;;;;;;;2.30;2.10;;;;;;;19.80;47.81;97409.78;4961444;28;20235;-90
2023/01/11 10:54:16;;;;;;;2.70;2.50;;;;;;;19.57;47.90;97369.91;4988384;28;20210;-92
2023/01/11 10:57:02;;;;;;;2.50;2.00;;;;;;;19.82;47.78;97396.28;4948138;28;20225;-92
2023/01/11 10:59:50;;;;;;;3.60;2.40;;;;;;;19.82;47.61;97397.97;4979307;28;20277;-92
2023/01/11 11:02:42;;;;;;;2.33;2.00;;;;;;;19.83;47.54;97389.50;4991307;28;20214;-91
2023/01/11 11:05:15;;;;;;;2.33;2.13;;;;;;;19.01;47.59;97248.13;4991554;28;20199;-91
2023/01/11 11:07:54;;;;;;;3.30;2.30;;;;;;;19.82;47.54;97386.09;4942564;28;20207;-92
2023/01/11 11:10:52;;;;;;;2.60;2.13;;;;;;;19.82;47.75;97381.00;4997515;28;20194;-89
2023/01/11 11:13:40;;;;;;;1.60;1.50;;;;;;;19.81;47.72;97368.19;4971370;28;20214;-89
2023/01/11 11:16:11;;;;;;;2.20;2.00;;;;;;;19.81;47.74;97365.63;4986441;28;20257;-92
2023/01/11 11:18:38;;;;;;;2.17;1.90;;;;;;;17.90;47.69;97027.88;4994383;28;20226;-91
2023/01/11 11:21:14;;;;;;;2.40;2.20;;;;;;;18.93;47.75;97208.84;4946600;28;20199;-91
2023/01/11 11:23:41;;;;;;;2.20;1.87;;;;;;;19.70;47.71;97338.91;4976205;28;20199;-90
2023/01/11 11:26:07;;;;;;;2.67;2.30;;;;;;;18.63;47.93;97151.78;4946288;28;20273;-91
2023/01/11 11:28:35;;;;;;;2.20;2.00;;;;;;;18.36;47.87;97105.00;4951808;28;20235;-91
2023/01/11 11:31:03;;;;;;;2.77;2.07;;;;;;;18.95;48.10;97207.19;4961971;28;20658;-91
2023/01/11 11:33:34;;;;;;;1.93;1.80;;;;;;;19.42;47.90;97275.94;4946358;28;20262;-91
2023/01/11 11:36:03;;;;;;;2.33;2.13;;;;;;;18.88;47.84;97173.81;4946326;28;20678;-91
2023/01/11 11:38:32;;;;;;;2.37;1.63;;;;;;;19.16;48.10;97248.66;4972577;28;20285;-91
2023/01/11 11:41:05;;;;;;;2.40;1.93;;;;;;;19.80;47.95;97328.19;4988962;28;20210;-92
2023/01/11 11:43:33;;;;;;;2.00;1.90;;;;;;;19.02;47.93;97206.59;4984541;28;20242;-92
2023/01/11 11:46:05;;;;;;;2.20;2.00;;;;;;;19.17;47.82;97236.81;4945452;28;20257;-91
2023/01/11 11:48:33;;;;;;;2.20;2.00;;;;;;;19.16;48.01;97242.72;4967599;28;20665;-92
2023/01/11 11:51:02;;;;;;;2.00;1.80;;;;;;;18.48;47.83;97094.41;4964179;28;20214;-90
2023/01/11 11:53:31;;;;;;;2.40;2.10;;;;;;;19.79;47.91;97317.13;4956791;28;20253;-91
2023/01/11 11:55:57;;;;;;;2.03;1.90;;;;;;;18.58;48.32;97104.94;4974253;28;20214;-93
2023/01/11 11:58:24;;;;;;;3.30;2.00;;;;;;;18.99;47.89;97205.63;4971944;28;20706;-92
2023/01/11 12:00:51;;;;;;;2.40;2.20;;;;;;;18.79;47.83;97165.88;4974034;28;20210;-90
2023/01/11 12:03:28;;;;;;;2.30;1.80;;;;;;;18.91;48.30;97182.44;4968709;28;20651;-90
2023/01/11 12:06:00;;;;;;;3.30;2.20;;;;;;;19.79;47.91;97316.25;4964573;28;20544;-90
2023/01/11 12:08:28;;;;;;;6.17;2.10;;;;;;;19.11;48.26;97200.94;4944605;28;20237;-90
2023/01/11 12:10:57;;;;;;;2.70;2.10;;;;;;;19.18;48.15;97223.25;4975628;28;20210;-90
2023/01/11 12:13:37;;;;;;;2.20;1.97;;;;;;;18.17;48.05;97031.38;4944054;28;20266;-88
2023/01/11 12:16:06;;;;;;;3.77;2.10;;;;;;;19.43;48.09;97231.81;4946564;28;20277;-89
2023/01/11 12:18:35;;;;;;;3.37;2.27;;;;;;;19.82;48.21;97295.97;4976942;28;20314;-88
2023/01/11 12:21:22;;;;;;;4.00;2.27;;;;;;;19.49;47.98;97248.97;4996115;28;20197;-92
2023/01/11 12:24:11;;;;;;;2.33;2.00;;;;;;;19.24;48.16;97193.75;4946183;28;20749;-90
2023/01/11 12:26:56;;;;;;;2.67;2.10;;;;;;;19.84;48.13;97302.00;4970249;28;20282;-91